New Orleans, Louisiana
Traffic Map
Current Weather Conditions
New Orleans, Louisiana
Few Clouds Haze
Few Clouds
77°
Feels Like: 78°
Wind Chill: 77° Ceiling: Unl
Heat Index: 78° Visibility: 9mi
Dew Point: 72° Wind: 6mph
Humidity: 84% Direction: 220° (SW)
Pressure: 29.95in Gusts: 0mph
Raw Report DataKNEW 311153Z COR 22005KT 9SM HZ FEW014 25/22 A2995 RMK AO2 SLP137 T02500222 10261 20250 53011
Traffic Incident Summary
Active as of:
Severity:
Category:
InformationThere was an issue retrieving the traffic information for this location. Please try a different location or try again shortly.
Advertisements
Track Severe Weather on mobile